Current Weather

Osceola Municipal Airport

Osceola Municipal Airport, Iowa (KI75)

Report from: Wednesday, August 17, 2022 8:35 PM CDT
Current time: Wednesday, August 17, 2022 9:03 PM CDT

Nearby weather
Weather history
Weather forecast

Temperature19.7°C (67.5°F)
Dew point17.7°C (63.9°F)
Winds Calm
Visibility10 mi. (16.1 km)
Clouds Sky clear
Altimeter30.10 in.Hg (1019 mB)
Relative humidity88 %
Density altitude623 ft. (190 m)
Remarks Fully automated report
Automated weather observing station with precipitation discriminator
Flight conditions Visual Meteorological Conditions
Raw dataKI75 180135Z AUTO 00000KT 10SM CLR 20/18 A3010 RMK AO2 T01970177
An error has occurred. This application may no longer respond until reloaded. Reload 🗙